sensor_id;sensor_type;location;lat;lon;timestamp;pressure;altitude;pressure_sealevel;temperature;humidity
2178;BME280;1095;50.992;6.798;2023-06-26T00:01:01;63430.59;;;-142.43;100.00
2178;BME280;1095;50.992;6.798;2023-06-26T00:03:28;63430.59;;;-142.43;100.00
2178;BME280;1095;50.992;6.798;2023-06-26T00:05:55;63430.59;;;-142.43;100.00
2178;BME280;1095;50.992;6.798;2023-06-26T00:08:25;63430.59;;;-142.43;100.00
2178;BME280;1095;50.992;6.798;2023-06-26T00:10:53;63430.59;;;-142.43;100.00
2178;BME280;1095;50.992;6.798;2023-06-26T00:13:21;63430.59;;;-142.43;100.00
2178;BME280;1095;50.992;6.798;2023-06-26T00:15:48;63430.59;;;-142.43;100.00
2178;BME280;1095;50.992;6.798;2023-06-26T00:18:15;63430.59;;;-142.43;100.00
2178;BME280;1095;50.992;6.798;2023-06-26T00:20:41;63430.59;;;-142.43;100.00
2178;BME280;1095;50.992;6.798;2023-06-26T00:23:08;63430.59;;;-142.43;100.00
2178;BME280;1095;50.992;6.798;2023-06-26T00:25:34;63430.59;;;-142.43;100.00
2178;BME280;1095;50.992;6.798;2023-06-26T00:28:03;63430.59;;;-142.43;100.00
2178;BME280;1095;50.992;6.798;2023-06-26T00:30:29;63430.59;;;-142.43;100.00
2178;BME280;1095;50.992;6.798;2023-06-26T00:32:56;63430.59;;;-142.43;100.00
2178;BME280;1095;50.992;6.798;2023-06-26T00:35:23;63430.59;;;-142.43;100.00
2178;BME280;1095;50.992;6.798;2023-06-26T00:37:49;63430.59;;;-142.43;100.00
2178;BME280;1095;50.992;6.798;2023-06-26T00:40:16;63430.59;;;-142.43;100.00
2178;BME280;1095;50.992;6.798;2023-06-26T00:42:43;63430.59;;;-142.43;100.00
2178;BME280;1095;50.992;6.798;2023-06-26T00:45:11;63430.59;;;-142.43;100.00
2178;BME280;1095;50.992;6.798;2023-06-26T00:47:38;63430.59;;;-142.43;100.00
2178;BME280;1095;50.992;6.798;2023-06-26T00:50:05;63430.59;;;-142.43;100.00
2178;BME280;1095;50.992;6.798;2023-06-26T00:52:32;63430.59;;;-142.43;100.00
2178;BME280;1095;50.992;6.798;2023-06-26T00:54:59;63430.59;;;-142.43;100.00
2178;BME280;1095;50.992;6.798;2023-06-26T00:57:26;63430.59;;;-142.43;100.00
2178;BME280;1095;50.992;6.798;2023-06-26T00:59:54;63430.59;;;-142.43;100.00
2178;BME280;1095;50.992;6.798;2023-06-26T01:02:22;63430.59;;;-142.43;100.00
2178;BME280;1095;50.992;6.798;2023-06-26T01:04:49;63430.59;;;-142.43;100.00
2178;BME280;1095;50.992;6.798;2023-06-26T01:07:16;63430.59;;;-142.43;100.00
2178;BME280;1095;50.992;6.798;2023-06-26T01:09:46;63430.59;;;-142.43;100.00
2178;BME280;1095;50.992;6.798;2023-06-26T01:12:13;63430.59;;;-142.43;100.00
2178;BME280;1095;50.992;6.798;2023-06-26T01:14:42;63430.59;;;-142.43;100.00
2178;BME280;1095;50.992;6.798;2023-06-26T01:17:10;63430.59;;;-142.43;100.00
2178;BME280;1095;50.992;6.798;2023-06-26T01:19:40;63430.59;;;-142.43;100.00
2178;BME280;1095;50.992;6.798;2023-06-26T01:22:14;63430.59;;;-142.43;100.00
2178;BME280;1095;50.992;6.798;2023-06-26T01:24:47;63430.59;;;-142.43;100.00
2178;BME280;1095;50.992;6.798;2023-06-26T01:27:22;63430.59;;;-142.43;100.00
2178;BME280;1095;50.992;6.798;2023-06-26T01:29:49;63430.59;;;-142.43;100.00
2178;BME280;1095;50.992;6.798;2023-06-26T01:32:17;63430.59;;;-142.43;100.00
2178;BME280;1095;50.992;6.798;2023-06-26T01:34:45;63430.59;;;-142.43;100.00
2178;BME280;1095;50.992;6.798;2023-06-26T01:37:12;63430.59;;;-142.43;100.00
2178;BME280;1095;50.992;6.798;2023-06-26T01:39:38;63430.59;;;-142.43;100.00
2178;BME280;1095;50.992;6.798;2023-06-26T01:42:06;63430.59;;;-142.43;100.00
2178;BME280;1095;50.992;6.798;2023-06-26T01:44:37;63430.59;;;-142.43;100.00
2178;BME280;1095;50.992;6.798;2023-06-26T01:47:07;63430.59;;;-142.43;100.00
2178;BME280;1095;50.992;6.798;2023-06-26T01:49:45;63430.59;;;-142.43;100.00
2178;BME280;1095;50.992;6.798;2023-06-26T01:52:19;63430.59;;;-142.43;100.00
2178;BME280;1095;50.992;6.798;2023-06-26T01:54:53;63430.59;;;-142.43;100.00
2178;BME280;1095;50.992;6.798;2023-06-26T01:57:20;63430.59;;;-142.43;100.00
2178;BME280;1095;50.992;6.798;2023-06-26T01:59:50;63430.59;;;-142.43;100.00
2178;BME280;1095;50.992;6.798;2023-06-26T02:02:17;63430.59;;;-142.43;100.00
2178;BME280;1095;50.992;6.798;2023-06-26T02:04:44;63430.59;;;-142.43;100.00
2178;BME280;1095;50.992;6.798;2023-06-26T02:07:13;63430.59;;;-142.43;100.00
2178;BME280;1095;50.992;6.798;2023-06-26T02:09:40;63430.59;;;-142.43;100.00
2178;BME280;1095;50.992;6.798;2023-06-26T02:12:07;63430.59;;;-142.43;100.00
2178;BME280;1095;50.992;6.798;2023-06-26T02:14:34;63430.59;;;-142.43;100.00
2178;BME280;1095;50.992;6.798;2023-06-26T02:17:02;63430.59;;;-142.43;100.00
2178;BME280;1095;50.992;6.798;2023-06-26T02:19:29;63430.59;;;-142.43;100.00
2178;BME280;1095;50.992;6.798;2023-06-26T02:21:55;63430.59;;;-142.43;100.00
2178;BME280;1095;50.992;6.798;2023-06-26T02:24:22;63430.59;;;-142.43;100.00
2178;BME280;1095;50.992;6.798;2023-06-26T02:26:48;63430.59;;;-142.43;100.00
2178;BME280;1095;50.992;6.798;2023-06-26T02:29:15;63430.59;;;-142.43;100.00
2178;BME280;1095;50.992;6.798;2023-06-26T02:31:42;63430.59;;;-142.43;100.00
2178;BME280;1095;50.992;6.798;2023-06-26T02:34:10;63430.59;;;-142.43;100.00
2178;BME280;1095;50.992;6.798;2023-06-26T02:36:37;63430.59;;;-142.43;100.00
2178;BME280;1095;50.992;6.798;2023-06-26T02:39:04;63430.59;;;-142.43;100.00
2178;BME280;1095;50.992;6.798;2023-06-26T02:41:31;63430.59;;;-142.43;100.00
2178;BME280;1095;50.992;6.798;2023-06-26T02:43:57;63430.59;;;-142.43;100.00
2178;BME280;1095;50.992;6.798;2023-06-26T02:46:24;63430.59;;;-142.43;100.00
2178;BME280;1095;50.992;6.798;2023-06-26T02:48:51;63430.59;;;-142.43;100.00
2178;BME280;1095;50.992;6.798;2023-06-26T02:51:19;63430.59;;;-142.43;100.00
2178;BME280;1095;50.992;6.798;2023-06-26T02:53:47;63430.59;;;-142.43;100.00
2178;BME280;1095;50.992;6.798;2023-06-26T02:56:14;63430.59;;;-142.43;100.00
2178;BME280;1095;50.992;6.798;2023-06-26T02:58:41;63430.59;;;-142.43;100.00
2178;BME280;1095;50.992;6.798;2023-06-26T03:01:07;63430.59;;;-142.43;100.00
2178;BME280;1095;50.992;6.798;2023-06-26T03:03:34;63430.59;;;-142.43;100.00
2178;BME280;1095;50.992;6.798;2023-06-26T03:06:05;63430.59;;;-142.43;100.00
2178;BME280;1095;50.992;6.798;2023-06-26T03:08:36;63430.59;;;-142.43;100.00
2178;BME280;1095;50.992;6.798;2023-06-26T03:11:05;63430.59;;;-142.43;100.00
2178;BME280;1095;50.992;6.798;2023-06-26T03:13:32;63430.59;;;-142.43;100.00
2178;BME280;1095;50.992;6.798;2023-06-26T03:15:59;63430.59;;;-142.43;100.00
2178;BME280;1095;50.992;6.798;2023-06-26T03:18:26;63430.59;;;-142.43;100.00
2178;BME280;1095;50.992;6.798;2023-06-26T03:20:52;63430.59;;;-142.43;100.00
2178;BME280;1095;50.992;6.798;2023-06-26T03:23:20;63430.59;;;-142.43;100.00
2178;BME280;1095;50.992;6.798;2023-06-26T03:25:48;63430.59;;;-142.43;100.00
2178;BME280;1095;50.992;6.798;2023-06-26T03:28:15;63430.59;;;-142.43;100.00
2178;BME280;1095;50.992;6.798;2023-06-26T03:30:42;63430.59;;;-142.43;100.00
2178;BME280;1095;50.992;6.798;2023-06-26T03:33:09;63430.59;;;-142.43;100.00
2178;BME280;1095;50.992;6.798;2023-06-26T03:35:36;63430.59;;;-142.43;100.00
2178;BME280;1095;50.992;6.798;2023-06-26T03:38:04;63430.59;;;-142.43;100.00
2178;BME280;1095;50.992;6.798;2023-06-26T03:40:31;63430.59;;;-142.43;100.00
2178;BME280;1095;50.992;6.798;2023-06-26T03:42:59;63430.59;;;-142.43;100.00
2178;BME280;1095;50.992;6.798;2023-06-26T03:45:26;63430.59;;;-142.43;100.00
2178;BME280;1095;50.992;6.798;2023-06-26T03:47:52;63430.59;;;-142.43;100.00
2178;BME280;1095;50.992;6.798;2023-06-26T03:50:19;63430.59;;;-142.43;100.00
2178;BME280;1095;50.992;6.798;2023-06-26T03:52:45;63430.59;;;-142.43;100.00
2178;BME280;1095;50.992;6.798;2023-06-26T03:55:12;63430.59;;;-142.43;100.00
2178;BME280;1095;50.992;6.798;2023-06-26T03:57:39;63430.59;;;-142.43;100.00
2178;BME280;1095;50.992;6.798;2023-06-26T04:00:08;63430.59;;;-142.43;100.00
2178;BME280;1095;50.992;6.798;2023-06-26T04:02:36;63430.59;;;-142.43;100.00
2178;BME280;1095;50.992;6.798;2023-06-26T04:05:04;63430.59;;;-142.43;100.00
2178;BME280;1095;50.992;6.798;2023-06-26T04:07:31;63430.59;;;-142.43;100.00
2178;BME280;1095;50.992;6.798;2023-06-26T04:09:58;63430.59;;;-142.43;100.00
2178;BME280;1095;50.992;6.798;2023-06-26T04:12:24;63430.59;;;-142.43;100.00
2178;BME280;1095;50.992;6.798;2023-06-26T04:14:51;63430.59;;;-142.43;100.00
2178;BME280;1095;50.992;6.798;2023-06-26T04:17:19;63430.59;;;-142.43;100.00
2178;BME280;1095;50.992;6.798;2023-06-26T04:19:47;63430.59;;;-142.43;100.00
2178;BME280;1095;50.992;6.798;2023-06-26T04:22:13;63430.59;;;-142.43;100.00
2178;BME280;1095;50.992;6.798;2023-06-26T04:24:40;63430.59;;;-142.43;100.00
2178;BME280;1095;50.992;6.798;2023-06-26T04:27:07;63430.59;;;-142.43;100.00
2178;BME280;1095;50.992;6.798;2023-06-26T04:29:33;63430.59;;;-142.43;100.00
2178;BME280;1095;50.992;6.798;2023-06-26T04:32:00;63430.59;;;-142.43;100.00
2178;BME280;1095;50.992;6.798;2023-06-26T04:34:28;63430.59;;;-142.43;100.00
2178;BME280;1095;50.992;6.798;2023-06-26T04:36:57;63430.59;;;-142.43;100.00
2178;BME280;1095;50.992;6.798;2023-06-26T04:39:27;63430.59;;;-142.43;100.00
2178;BME280;1095;50.992;6.798;2023-06-26T04:41:55;63430.59;;;-142.43;100.00
2178;BME280;1095;50.992;6.798;2023-06-26T04:44:22;63430.59;;;-142.43;100.00
2178;BME280;1095;50.992;6.798;2023-06-26T04:46:49;63430.59;;;-142.43;100.00
2178;BME280;1095;50.992;6.798;2023-06-26T04:49:17;63430.59;;;-142.43;100.00
2178;BME280;1095;50.992;6.798;2023-06-26T04:51:45;63430.59;;;-142.43;100.00
2178;BME280;1095;50.992;6.798;2023-06-26T04:54:12;63430.59;;;-142.43;100.00
2178;BME280;1095;50.992;6.798;2023-06-26T04:56:39;63430.59;;;-142.43;100.00
2178;BME280;1095;50.992;6.798;2023-06-26T04:59:11;63430.59;;;-142.43;100.00
2178;BME280;1095;50.992;6.798;2023-06-26T05:01:38;63430.59;;;-142.43;100.00
2178;BME280;1095;50.992;6.798;2023-06-26T05:04:05;63430.59;;;-142.43;100.00
2178;BME280;1095;50.992;6.798;2023-06-26T05:06:32;63430.59;;;-142.43;100.00
2178;BME280;1095;50.992;6.798;2023-06-26T05:09:00;63430.59;;;-142.43;100.00
2178;BME280;1095;50.992;6.798;2023-06-26T05:11:26;63430.59;;;-142.43;100.00
2178;BME280;1095;50.992;6.798;2023-06-26T05:13:53;63430.59;;;-142.43;100.00
2178;BME280;1095;50.992;6.798;2023-06-26T05:16:22;63430.59;;;-142.43;100.00
2178;BME280;1095;50.992;6.798;2023-06-26T05:18:49;63430.59;;;-142.43;100.00
2178;BME280;1095;50.992;6.798;2023-06-26T05:21:16;63430.59;;;-142.43;100.00
2178;BME280;1095;50.992;6.798;2023-06-26T05:23:43;63430.59;;;-142.43;100.00
2178;BME280;1095;50.992;6.798;2023-06-26T05:26:13;63430.59;;;-142.43;100.00
2178;BME280;1095;50.992;6.798;2023-06-26T05:28:49;63430.59;;;-142.43;100.00
2178;BME280;1095;50.992;6.798;2023-06-26T05:31:16;63430.59;;;-142.43;100.00
2178;BME280;1095;50.992;6.798;2023-06-26T05:33:44;63430.59;;;-142.43;100.00
2178;BME280;1095;50.992;6.798;2023-06-26T05:36:12;63430.59;;;-142.43;100.00
2178;BME280;1095;50.992;6.798;2023-06-26T05:38:39;63430.59;;;-142.43;100.00
2178;BME280;1095;50.992;6.798;2023-06-26T05:41:07;63430.59;;;-142.43;100.00
2178;BME280;1095;50.992;6.798;2023-06-26T05:43:35;63430.59;;;-142.43;100.00
2178;BME280;1095;50.992;6.798;2023-06-26T05:46:01;63430.59;;;-142.43;100.00
2178;BME280;1095;50.992;6.798;2023-06-26T05:48:28;63430.59;;;-142.43;100.00
2178;BME280;1095;50.992;6.798;2023-06-26T05:50:55;63430.59;;;-142.43;100.00
2178;BME280;1095;50.992;6.798;2023-06-26T05:53:22;63430.59;;;-142.43;100.00
2178;BME280;1095;50.992;6.798;2023-06-26T05:55:49;63430.59;;;-142.43;100.00
2178;BME280;1095;50.992;6.798;2023-06-26T05:58:18;63430.59;;;-142.43;100.00
2178;BME280;1095;50.992;6.798;2023-06-26T06:00:47;63430.59;;;-142.43;100.00
2178;BME280;1095;50.992;6.798;2023-06-26T06:03:13;63430.59;;;-142.43;100.00
2178;BME280;1095;50.992;6.798;2023-06-26T06:05:40;63430.59;;;-142.43;100.00
2178;BME280;1095;50.992;6.798;2023-06-26T06:08:06;63430.59;;;-142.43;100.00
2178;BME280;1095;50.992;6.798;2023-06-26T06:10:33;63430.59;;;-142.43;100.00
2178;BME280;1095;50.992;6.798;2023-06-26T06:13:01;63430.59;;;-142.43;100.00
2178;BME280;1095;50.992;6.798;2023-06-26T06:15:28;63430.59;;;-142.43;100.00
2178;BME280;1095;50.992;6.798;2023-06-26T06:17:55;63430.59;;;-142.43;100.00
2178;BME280;1095;50.992;6.798;2023-06-26T06:20:22;63430.59;;;-142.43;100.00
2178;BME280;1095;50.992;6.798;2023-06-26T06:22:49;63430.59;;;-142.43;100.00
2178;BME280;1095;50.992;6.798;2023-06-26T06:25:15;63430.59;;;-142.43;100.00
2178;BME280;1095;50.992;6.798;2023-06-26T06:27:42;63430.59;;;-142.43;100.00
2178;BME280;1095;50.992;6.798;2023-06-26T06:30:10;63430.59;;;-142.43;100.00
2178;BME280;1095;50.992;6.798;2023-06-26T06:32:37;63430.59;;;-142.43;100.00
2178;BME280;1095;50.992;6.798;2023-06-26T06:35:05;63430.59;;;-142.43;100.00
2178;BME280;1095;50.992;6.798;2023-06-26T06:37:35;63430.59;;;-142.43;100.00
2178;BME280;1095;50.992;6.798;2023-06-26T06:40:02;63430.59;;;-142.43;100.00
2178;BME280;1095;50.992;6.798;2023-06-26T06:42:29;63430.59;;;-142.43;100.00
2178;BME280;1095;50.992;6.798;2023-06-26T06:44:56;63430.59;;;-142.43;100.00
2178;BME280;1095;50.992;6.798;2023-06-26T06:47:23;63430.59;;;-142.43;100.00
2178;BME280;1095;50.992;6.798;2023-06-26T06:49:50;63430.59;;;-142.43;100.00
2178;BME280;1095;50.992;6.798;2023-06-26T06:52:18;63430.59;;;-142.43;100.00
2178;BME280;1095;50.992;6.798;2023-06-26T06:54:51;63430.59;;;-142.43;100.00
2178;BME280;1095;50.992;6.798;2023-06-26T06:57:19;63430.59;;;-142.43;100.00
2178;BME280;1095;50.992;6.798;2023-06-26T06:59:45;63430.59;;;-142.43;100.00
2178;BME280;1095;50.992;6.798;2023-06-26T07:02:12;63430.59;;;-142.43;100.00
2178;BME280;1095;50.992;6.798;2023-06-26T07:04:39;63430.59;;;-142.43;100.00
2178;BME280;1095;50.992;6.798;2023-06-26T07:07:06;63430.59;;;-142.43;100.00
2178;BME280;1095;50.992;6.798;2023-06-26T07:09:35;63430.59;;;-142.43;100.00
2178;BME280;1095;50.992;6.798;2023-06-26T07:12:02;63430.59;;;-142.43;100.00
2178;BME280;1095;50.992;6.798;2023-06-26T07:14:29;63430.59;;;-142.43;100.00
2178;BME280;1095;50.992;6.798;2023-06-26T07:16:55;63430.59;;;-142.43;100.00
2178;BME280;1095;50.992;6.798;2023-06-26T07:19:22;63430.59;;;-142.43;100.00
2178;BME280;1095;50.992;6.798;2023-06-26T07:21:49;63430.59;;;-142.43;100.00
2178;BME280;1095;50.992;6.798;2023-06-26T07:24:15;63430.59;;;-142.43;100.00
2178;BME280;1095;50.992;6.798;2023-06-26T07:26:43;63430.59;;;-142.43;100.00
2178;BME280;1095;50.992;6.798;2023-06-26T07:29:10;63430.59;;;-142.43;100.00
2178;BME280;1095;50.992;6.798;2023-06-26T07:31:37;63430.59;;;-142.43;100.00
2178;BME280;1095;50.992;6.798;2023-06-26T07:34:04;63430.59;;;-142.43;100.00
2178;BME280;1095;50.992;6.798;2023-06-26T07:36:31;63430.59;;;-142.43;100.00
2178;BME280;1095;50.992;6.798;2023-06-26T07:38:57;63430.59;;;-142.43;100.00
2178;BME280;1095;50.992;6.798;2023-06-26T07:41:24;63430.59;;;-142.43;100.00
2178;BME280;1095;50.992;6.798;2023-06-26T07:43:52;63430.59;;;-142.43;100.00
2178;BME280;1095;50.992;6.798;2023-06-26T07:46:19;63430.59;;;-142.43;100.00
2178;BME280;1095;50.992;6.798;2023-06-26T07:48:45;63430.59;;;-142.43;100.00
2178;BME280;1095;50.992;6.798;2023-06-26T07:51:12;63430.59;;;-142.43;100.00
2178;BME280;1095;50.992;6.798;2023-06-26T07:53:39;63430.59;;;-142.43;100.00
2178;BME280;1095;50.992;6.798;2023-06-26T07:56:05;63430.59;;;-142.43;100.00
2178;BME280;1095;50.992;6.798;2023-06-26T07:58:32;63430.59;;;-142.43;100.00
2178;BME280;1095;50.992;6.798;2023-06-26T08:01:02;63430.59;;;-142.43;100.00
2178;BME280;1095;50.992;6.798;2023-06-26T08:03:29;63430.59;;;-142.43;100.00
2178;BME280;1095;50.992;6.798;2023-06-26T08:05:55;63430.59;;;-142.43;100.00
2178;BME280;1095;50.992;6.798;2023-06-26T08:08:25;63430.59;;;-142.43;100.00
2178;BME280;1095;50.992;6.798;2023-06-26T08:10:51;63430.59;;;-142.43;100.00
2178;BME280;1095;50.992;6.798;2023-06-26T08:13:18;63430.59;;;-142.43;100.00
2178;BME280;1095;50.992;6.798;2023-06-26T08:15:44;63430.59;;;-142.43;100.00
2178;BME280;1095;50.992;6.798;2023-06-26T08:18:12;63430.59;;;-142.43;100.00
2178;BME280;1095;50.992;6.798;2023-06-26T08:20:39;63430.59;;;-142.43;100.00
2178;BME280;1095;50.992;6.798;2023-06-26T08:23:05;63430.59;;;-142.43;100.00
2178;BME280;1095;50.992;6.798;2023-06-26T08:25:32;63430.59;;;-142.43;100.00
2178;BME280;1095;50.992;6.798;2023-06-26T08:27:59;63430.59;;;-142.43;100.00
2178;BME280;1095;50.992;6.798;2023-06-26T08:30:28;63430.59;;;-142.43;100.00
2178;BME280;1095;50.992;6.798;2023-06-26T08:32:55;63430.59;;;-142.43;100.00
2178;BME280;1095;50.992;6.798;2023-06-26T09:32:50;100881.09;;;24.97;63.99
2178;BME280;1095;50.992;6.798;2023-06-26T09:35:17;100881.38;;;24.22;66.01
2178;BME280;1095;50.992;6.798;2023-06-26T09:37:43;100889.72;;;24.70;66.37
2178;BME280;1095;50.992;6.798;2023-06-26T09:40:11;100883.84;;;25.40;65.35
2178;BME280;1095;50.992;6.798;2023-06-26T09:42:37;100874.09;;;25.73;62.87
2178;BME280;1095;50.992;6.798;2023-06-26T09:45:05;100896.34;;;26.49;63.03
2178;BME280;1095;50.992;6.798;2023-06-26T09:47:34;100877.31;;;26.83;59.68
2178;BME280;1095;50.992;6.798;2023-06-26T09:50:04;100888.59;;;25.17;63.31
2178;BME280;1095;50.992;6.798;2023-06-26T09:52:31;100891.84;;;24.85;64.80
2178;BME280;1095;50.992;6.798;2023-06-26T09:55:10;100889.88;;;25.31;64.31
2178;BME280;1095;50.992;6.798;2023-06-26T09:57:37;100892.66;;;24.86;63.97
2178;BME280;1095;50.992;6.798;2023-06-26T10:00:05;100898.81;;;24.86;64.44
2178;BME280;1095;50.992;6.798;2023-06-26T10:02:34;100891.06;;;25.62;62.21
2178;BME280;1095;50.992;6.798;2023-06-26T10:05:05;100903.91;;;26.03;61.96
2178;BME280;1095;50.992;6.798;2023-06-26T10:07:32;100899.97;;;25.07;62.77
2178;BME280;1095;50.992;6.798;2023-06-26T10:10:00;100879.25;;;24.35;64.58
2178;BME280;1095;50.992;6.798;2023-06-26T10:12:30;100898.59;;;24.26;65.61
2178;BME280;1095;50.992;6.798;2023-06-26T10:14:59;100901.69;;;24.34;65.48
2178;BME280;1095;50.992;6.798;2023-06-26T10:17:28;100897.94;;;24.80;63.69
2178;BME280;1095;50.992;6.798;2023-06-26T10:19:58;100913.91;;;25.26;62.33
2178;BME280;1095;50.992;6.798;2023-06-26T10:22:34;100900.53;;;25.09;62.07
2178;BME280;1095;50.992;6.798;2023-06-26T10:25:03;100896.81;;;25.49;61.94
2178;BME280;1095;50.992;6.798;2023-06-26T10:27:35;100900.19;;;25.22;61.98
2178;BME280;1095;50.992;6.798;2023-06-26T10:30:05;100900.41;;;25.59;60.70
2178;BME280;1095;50.992;6.798;2023-06-26T10:32:33;100892.53;;;25.69;59.43
2178;BME280;1095;50.992;6.798;2023-06-26T10:35:00;100901.22;;;26.03;58.52
2178;BME280;1095;50.992;6.798;2023-06-26T10:37:50;100908.88;;;25.29;59.02
2178;BME280;1095;50.992;6.798;2023-06-26T10:40:22;100895.88;;;25.38;59.17
2178;BME280;1095;50.992;6.798;2023-06-26T10:42:51;100899.91;;;25.79;58.09
2178;BME280;1095;50.992;6.798;2023-06-26T10:45:33;100898.72;;;24.64;59.45
2178;BME280;1095;50.992;6.798;2023-06-26T10:48:00;100909.53;;;24.86;60.27
2178;BME280;1095;50.992;6.798;2023-06-26T10:50:28;100900.66;;;24.97;59.05
2178;BME280;1095;50.992;6.798;2023-06-26T10:53:10;100902.66;;;25.45;58.57
2178;BME280;1095;50.992;6.798;2023-06-26T10:55:42;100909.69;;;25.68;59.23
2178;BME280;1095;50.992;6.798;2023-06-26T10:58:32;100896.78;;;25.65;58.77
2178;BME280;1095;50.992;6.798;2023-06-26T11:01:19;100894.81;;;26.04;58.03
2178;BME280;1095;50.992;6.798;2023-06-26T11:03:48;100897.56;;;26.09;58.52
2178;BME280;1095;50.992;6.798;2023-06-26T11:06:18;100895.72;;;26.37;55.81
2178;BME280;1095;50.992;6.798;2023-06-26T11:08:48;100909.19;;;26.20;56.73
2178;BME280;1095;50.992;6.798;2023-06-26T11:11:15;100902.28;;;26.02;56.34
2178;BME280;1095;50.992;6.798;2023-06-26T11:13:45;100910.75;;;26.16;56.86
2178;BME280;1095;50.992;6.798;2023-06-26T11:16:12;100911.50;;;26.11;57.18
2178;BME280;1095;50.992;6.798;2023-06-26T11:18:40;100916.91;;;25.68;56.73
2178;BME280;1095;50.992;6.798;2023-06-26T11:21:07;100926.66;;;25.57;58.63
2178;BME280;1095;50.992;6.798;2023-06-26T11:23:36;100913.34;;;25.07;58.81
2178;BME280;1095;50.992;6.798;2023-06-26T11:26:25;100910.19;;;25.10;57.29
2178;BME280;1095;50.992;6.798;2023-06-26T11:28:54;100919.91;;;25.16;57.26
2178;BME280;1095;50.992;6.798;2023-06-26T11:31:25;100923.16;;;24.85;57.26
2178;BME280;1095;50.992;6.798;2023-06-26T11:33:52;100914.47;;;25.11;55.52
2178;BME280;1095;50.992;6.798;2023-06-26T11:36:19;100913.00;;;25.59;55.75
2178;BME280;1095;50.992;6.798;2023-06-26T11:38:46;100911.63;;;25.18;56.16
2178;BME280;1095;50.992;6.798;2023-06-26T11:41:18;100919.97;;;25.60;56.71
2178;BME280;1095;50.992;6.798;2023-06-26T11:43:46;100921.19;;;26.12;56.34
2178;BME280;1095;50.992;6.798;2023-06-26T11:46:16;100911.13;;;26.25;54.86
2178;BME280;1095;50.992;6.798;2023-06-26T11:48:43;100922.25;;;26.65;54.53
2178;BME280;1095;50.992;6.798;2023-06-26T11:51:12;100914.94;;;27.25;52.69
2178;BME280;1095;50.992;6.798;2023-06-26T11:53:39;100919.94;;;27.58;51.81
2178;BME280;1095;50.992;6.798;2023-06-26T11:56:08;100914.00;;;27.04;52.27
2178;BME280;1095;50.992;6.798;2023-06-26T11:58:35;100919.31;;;26.67;52.81
2178;BME280;1095;50.992;6.798;2023-06-26T12:01:03;100922.50;;;26.32;51.59
2178;BME280;1095;50.992;6.798;2023-06-26T12:03:33;100938.22;;;26.01;53.20
2178;BME280;1095;50.992;6.798;2023-06-26T12:06:00;100942.75;;;26.44;53.24
2178;BME280;1095;50.992;6.798;2023-06-26T12:08:31;100930.66;;;26.74;53.71
2178;BME280;1095;50.992;6.798;2023-06-26T12:10:59;100924.59;;;26.57;52.96
2178;BME280;1095;50.992;6.798;2023-06-26T12:13:26;100931.28;;;25.62;53.96
2178;BME280;1095;50.992;6.798;2023-06-26T12:15:53;100925.19;;;26.32;52.66
2178;BME280;1095;50.992;6.798;2023-06-26T12:18:21;100918.81;;;26.38;51.16
2178;BME280;1095;50.992;6.798;2023-06-26T12:20:51;100929.41;;;26.55;52.00
2178;BME280;1095;50.992;6.798;2023-06-26T12:23:18;100934.72;;;26.76;52.20
2178;BME280;1095;50.992;6.798;2023-06-26T12:25:44;100946.56;;;26.27;52.22
2178;BME280;1095;50.992;6.798;2023-06-26T12:28:16;100936.53;;;26.17;52.24
2178;BME280;1095;50.992;6.798;2023-06-26T12:30:46;100945.91;;;25.93;51.84
2178;BME280;1095;50.992;6.798;2023-06-26T12:33:13;100932.50;;;25.71;52.13
2178;BME280;1095;50.992;6.798;2023-06-26T12:35:42;100952.13;;;26.20;52.00
2178;BME280;1095;50.992;6.798;2023-06-26T12:38:09;100937.63;;;26.43;50.74
2178;BME280;1095;50.992;6.798;2023-06-26T12:40:44;100959.47;;;26.08;51.46
2178;BME280;1095;50.992;6.798;2023-06-26T12:43:12;100945.47;;;25.79;50.71
2178;BME280;1095;50.992;6.798;2023-06-26T12:45:48;100959.31;;;25.93;51.07
2178;BME280;1095;50.992;6.798;2023-06-26T12:48:15;100971.72;;;25.99;51.86
2178;BME280;1095;50.992;6.798;2023-06-26T12:50:44;100971.94;;;25.75;51.40
2178;BME280;1095;50.992;6.798;2023-06-26T12:53:11;100967.78;;;25.46;51.88
2178;BME280;1095;50.992;6.798;2023-06-26T12:55:38;100965.28;;;25.61;51.89
2178;BME280;1095;50.992;6.798;2023-06-26T12:58:04;100949.59;;;25.48;51.99
2178;BME280;1095;50.992;6.798;2023-06-26T13:00:32;100955.28;;;25.18;51.79
2178;BME280;1095;50.992;6.798;2023-06-26T13:02:59;100947.06;;;25.03;51.87
2178;BME280;1095;50.992;6.798;2023-06-26T13:05:26;100959.19;;;25.44;51.44
2178;BME280;1095;50.992;6.798;2023-06-26T13:07:54;100966.59;;;25.59;51.57
2178;BME280;1095;50.992;6.798;2023-06-26T13:10:20;100960.09;;;25.55;51.42
2178;BME280;1095;50.992;6.798;2023-06-26T13:12:47;100954.44;;;25.68;51.44
2178;BME280;1095;50.992;6.798;2023-06-26T13:15:14;100962.75;;;25.50;51.86
2178;BME280;1095;50.992;6.798;2023-06-26T13:17:40;100960.72;;;25.23;51.27
2178;BME280;1095;50.992;6.798;2023-06-26T13:20:08;100946.38;;;25.29;49.74
2178;BME280;1095;50.992;6.798;2023-06-26T13:22:35;100957.91;;;25.30;50.07
2178;BME280;1095;50.992;6.798;2023-06-26T13:25:03;100947.28;;;25.57;49.68
2178;BME280;1095;50.992;6.798;2023-06-26T13:27:30;100951.50;;;25.69;48.72
2178;BME280;1095;50.992;6.798;2023-06-26T13:29:57;100961.91;;;25.66;48.76
2178;BME280;1095;50.992;6.798;2023-06-26T13:32:23;100969.22;;;25.70;49.39
2178;BME280;1095;50.992;6.798;2023-06-26T13:34:50;100969.47;;;25.91;49.26
2178;BME280;1095;50.992;6.798;2023-06-26T13:37:17;100982.75;;;26.02;49.41
2178;BME280;1095;50.992;6.798;2023-06-26T13:39:44;100974.59;;;25.92;48.02
2178;BME280;1095;50.992;6.798;2023-06-26T13:42:16;100967.84;;;25.51;49.14
2178;BME280;1095;50.992;6.798;2023-06-26T13:44:42;100959.94;;;25.61;47.84
2178;BME280;1095;50.992;6.798;2023-06-26T13:47:12;100956.75;;;25.81;47.93
2178;BME280;1095;50.992;6.798;2023-06-26T13:49:39;100957.75;;;25.97;47.83
2178;BME280;1095;50.992;6.798;2023-06-26T13:52:06;100960.16;;;25.38;48.55
2178;BME280;1095;50.992;6.798;2023-06-26T13:54:34;100963.56;;;25.50;47.65
2178;BME280;1095;50.992;6.798;2023-06-26T13:57:01;100948.50;;;25.66;47.59
2178;BME280;1095;50.992;6.798;2023-06-26T13:59:32;100939.56;;;25.60;46.83